sensor_id;sensor_type;location;lat;lon;timestamp;pressure;altitude;pressure_sealevel;temperature;humidity
44131;BME280;29792;48.726;9.248;2023-03-19T00:01:05;96605.56;;;11.69;62.79
44131;BME280;29792;48.726;9.248;2023-03-19T00:03:31;96602.88;;;11.70;62.26
44131;BME280;29792;48.726;9.248;2023-03-19T00:05:56;96602.75;;;11.72;62.50
44131;BME280;29792;48.726;9.248;2023-03-19T00:08:21;96597.59;;;11.72;62.44
44131;BME280;29792;48.726;9.248;2023-03-19T00:10:47;96607.63;;;11.75;62.61
44131;BME280;29792;48.726;9.248;2023-03-19T00:13:13;96594.63;;;11.76;62.19
44131;BME280;29792;48.726;9.248;2023-03-19T00:15:38;96597.06;;;11.78;62.11
44131;BME280;29792;48.726;9.248;2023-03-19T00:18:03;96601.00;;;11.82;62.68
44131;BME280;29792;48.726;9.248;2023-03-19T00:20:30;96601.00;;;11.82;61.88
44131;BME280;29792;48.726;9.248;2023-03-19T00:22:56;96601.63;;;11.84;62.21
44131;BME280;29792;48.726;9.248;2023-03-19T00:25:21;96604.88;;;11.86;62.69
44131;BME280;29792;48.726;9.248;2023-03-19T00:27:46;96608.38;;;11.85;62.96
44131;BME280;29792;48.726;9.248;2023-03-19T00:30:12;96607.06;;;11.81;64.00
44131;BME280;29792;48.726;9.248;2023-03-19T00:32:39;96602.59;;;11.73;64.13
44131;BME280;29792;48.726;9.248;2023-03-19T00:35:05;96611.66;;;11.68;64.45
44131;BME280;29792;48.726;9.248;2023-03-19T00:37:30;96608.56;;;11.64;64.18
44131;BME280;29792;48.726;9.248;2023-03-19T00:39:56;96613.16;;;11.61;64.66
44131;BME280;29792;48.726;9.248;2023-03-19T00:42:21;96611.97;;;11.55;65.38
44131;BME280;29792;48.726;9.248;2023-03-19T00:44:46;96612.53;;;11.49;65.62
44131;BME280;29792;48.726;9.248;2023-03-19T00:47:11;96614.69;;;11.44;66.30
44131;BME280;29792;48.726;9.248;2023-03-19T00:49:36;96612.53;;;11.39;66.03
44131;BME280;29792;48.726;9.248;2023-03-19T00:52:02;96611.97;;;11.36;65.99
44131;BME280;29792;48.726;9.248;2023-03-19T00:54:27;96614.56;;;11.36;65.70
44131;BME280;29792;48.726;9.248;2023-03-19T00:56:52;96614.41;;;11.37;65.92
44131;BME280;29792;48.726;9.248;2023-03-19T00:59:17;96610.91;;;11.38;65.97
44131;BME280;29792;48.726;9.248;2023-03-19T01:01:43;96614.41;;;11.37;65.97
44131;BME280;29792;48.726;9.248;2023-03-19T01:04:08;96617.78;;;11.38;66.04
44131;BME280;29792;48.726;9.248;2023-03-19T01:06:35;96623.72;;;11.38;66.71
44131;BME280;29792;48.726;9.248;2023-03-19T01:09:00;96624.00;;;11.35;66.81
44131;BME280;29792;48.726;9.248;2023-03-19T01:11:26;96629.28;;;11.34;66.84
44131;BME280;29792;48.726;9.248;2023-03-19T01:13:51;96625.78;;;11.35;66.46
44131;BME280;29792;48.726;9.248;2023-03-19T01:16:16;96633.31;;;11.36;66.42
44131;BME280;29792;48.726;9.248;2023-03-19T01:18:42;96635.88;;;11.36;67.10
44131;BME280;29792;48.726;9.248;2023-03-19T01:21:07;96631.69;;;11.35;66.99
44131;BME280;29792;48.726;9.248;2023-03-19T01:23:32;96635.88;;;11.36;66.83
44131;BME280;29792;48.726;9.248;2023-03-19T01:25:58;96635.06;;;11.36;66.53
44131;BME280;29792;48.726;9.248;2023-03-19T01:28:23;96636.81;;;11.35;66.90
44131;BME280;29792;48.726;9.248;2023-03-19T01:30:48;96647.06;;;11.35;66.93
44131;BME280;29792;48.726;9.248;2023-03-19T01:33:14;96646.44;;;11.33;67.53
44131;BME280;29792;48.726;9.248;2023-03-19T01:35:39;96665.44;;;11.31;68.25
44131;BME280;29792;48.726;9.248;2023-03-19T01:38:05;96662.88;;;11.21;68.74
44131;BME280;29792;48.726;9.248;2023-03-19T01:40:32;96666.25;;;11.12;69.94
44131;BME280;29792;48.726;9.248;2023-03-19T01:45:39;96667.72;;;10.95;71.27
44131;BME280;29792;48.726;9.248;2023-03-19T01:48:05;96673.00;;;10.84;71.79
44131;BME280;29792;48.726;9.248;2023-03-19T01:50:39;96675.66;;;10.73;72.87
44131;BME280;29792;48.726;9.248;2023-03-19T01:53:06;96678.75;;;10.67;73.08
44131;BME280;29792;48.726;9.248;2023-03-19T01:55:33;96676.84;;;10.59;73.29
44131;BME280;29792;48.726;9.248;2023-03-19T01:57:59;96670.09;;;10.58;73.13
44131;BME280;29792;48.726;9.248;2023-03-19T02:00:25;96673.47;;;10.59;73.12
44131;BME280;29792;48.726;9.248;2023-03-19T02:02:52;96674.97;;;10.61;72.57
44131;BME280;29792;48.726;9.248;2023-03-19T02:05:20;96677.25;;;10.64;72.98
44131;BME280;29792;48.726;9.248;2023-03-19T02:07:51;96678.88;;;10.65;72.52
44131;BME280;29792;48.726;9.248;2023-03-19T02:10:19;96670.00;;;10.69;71.69
44131;BME280;29792;48.726;9.248;2023-03-19T02:12:45;96671.34;;;10.74;71.94
44131;BME280;29792;48.726;9.248;2023-03-19T02:15:11;96671.75;;;10.79;72.18
44131;BME280;29792;48.726;9.248;2023-03-19T02:17:37;96670.31;;;10.86;73.64
44131;BME280;29792;48.726;9.248;2023-03-19T02:20:35;96678.13;;;10.94;74.03
44131;BME280;29792;48.726;9.248;2023-03-19T02:26:13;96672.47;;;11.09;77.14
44131;BME280;29792;48.726;9.248;2023-03-19T02:28:41;96665.31;;;11.13;78.19
44131;BME280;29792;48.726;9.248;2023-03-19T02:31:08;96662.19;;;11.19;79.52
44131;BME280;29792;48.726;9.248;2023-03-19T02:33:34;96667.88;;;11.23;80.67
44131;BME280;29792;48.726;9.248;2023-03-19T02:36:00;96671.13;;;11.25;82.85
44131;BME280;29792;48.726;9.248;2023-03-19T02:38:28;96673.25;;;11.20;84.89
44131;BME280;29792;48.726;9.248;2023-03-19T02:40:59;96677.19;;;11.14;86.46
44131;BME280;29792;48.726;9.248;2023-03-19T02:43:25;96674.88;;;11.11;86.69
44131;BME280;29792;48.726;9.248;2023-03-19T02:45:51;96679.34;;;11.09;87.77
44131;BME280;29792;48.726;9.248;2023-03-19T02:48:16;96684.47;;;11.09;88.09
44131;BME280;29792;48.726;9.248;2023-03-19T02:50:42;96694.59;;;11.11;89.14
44131;BME280;29792;48.726;9.248;2023-03-19T02:53:07;96691.88;;;11.12;89.12
44131;BME280;29792;48.726;9.248;2023-03-19T02:55:33;96699.06;;;11.18;89.40
44131;BME280;29792;48.726;9.248;2023-03-19T02:57:58;96697.72;;;11.24;88.93
44131;BME280;29792;48.726;9.248;2023-03-19T03:00:23;96703.09;;;11.30;87.91
44131;BME280;29792;48.726;9.248;2023-03-19T03:02:49;96691.66;;;11.34;87.91
44131;BME280;29792;48.726;9.248;2023-03-19T03:05:15;96690.28;;;11.40;87.34
44131;BME280;29792;48.726;9.248;2023-03-19T03:07:40;96693.25;;;11.45;87.38
44131;BME280;29792;48.726;9.248;2023-03-19T03:10:08;96696.22;;;11.50;86.56
44131;BME280;29792;48.726;9.248;2023-03-19T03:12:33;96686.47;;;11.54;85.75
44131;BME280;29792;48.726;9.248;2023-03-19T03:15:00;96682.72;;;11.58;85.73
44131;BME280;29792;48.726;9.248;2023-03-19T03:17:26;96674.06;;;11.59;85.74
44131;BME280;29792;48.726;9.248;2023-03-19T03:19:51;96675.81;;;11.58;86.51
44131;BME280;29792;48.726;9.248;2023-03-19T03:22:17;96688.78;;;11.57;87.29
44131;BME280;29792;48.726;9.248;2023-03-19T03:24:42;96705.00;;;11.47;88.40
44131;BME280;29792;48.726;9.248;2023-03-19T03:27:08;96717.94;;;11.36;89.20
44131;BME280;29792;48.726;9.248;2023-03-19T03:29:33;96719.03;;;11.24;89.71
44131;BME280;29792;48.726;9.248;2023-03-19T03:31:58;96710.00;;;11.11;90.57
44131;BME280;29792;48.726;9.248;2023-03-19T03:34:24;96715.75;;;11.03;91.03
44131;BME280;29792;48.726;9.248;2023-03-19T03:36:49;96713.19;;;10.93;91.97
44131;BME280;29792;48.726;9.248;2023-03-19T03:39:14;96691.06;;;10.83;92.55
44131;BME280;29792;48.726;9.248;2023-03-19T03:41:40;96688.91;;;10.78;93.19
44131;BME280;29792;48.726;9.248;2023-03-19T03:44:05;96688.34;;;10.75;93.83
44131;BME280;29792;48.726;9.248;2023-03-19T03:46:30;96692.09;;;10.70;94.49
44131;BME280;29792;48.726;9.248;2023-03-19T03:48:56;96698.31;;;10.68;94.34
44131;BME280;29792;48.726;9.248;2023-03-19T03:51:21;96696.81;;;10.65;95.08
44131;BME280;29792;48.726;9.248;2023-03-19T03:53:47;96715.00;;;10.62;95.45
44131;BME280;29792;48.726;9.248;2023-03-19T03:56:12;96711.88;;;10.59;95.78
44131;BME280;29792;48.726;9.248;2023-03-19T03:58:38;96713.06;;;10.55;95.36
44131;BME280;29792;48.726;9.248;2023-03-19T04:01:03;96715.78;;;10.53;95.76
44131;BME280;29792;48.726;9.248;2023-03-19T04:03:30;96719.00;;;10.55;95.67
44131;BME280;29792;48.726;9.248;2023-03-19T04:05:55;96712.25;;;10.54;95.69
44131;BME280;29792;48.726;9.248;2023-03-19T04:08:20;96717.53;;;10.53;95.45
44131;BME280;29792;48.726;9.248;2023-03-19T04:10:46;96722.78;;;10.51;95.70
44131;BME280;29792;48.726;9.248;2023-03-19T04:13:11;96720.75;;;10.45;96.56
44131;BME280;29792;48.726;9.248;2023-03-19T04:15:37;96721.63;;;10.35;97.04
44131;BME280;29792;48.726;9.248;2023-03-19T04:18:03;96719.97;;;10.24;97.64
44131;BME280;29792;48.726;9.248;2023-03-19T04:20:28;96723.94;;;10.17;98.05
44131;BME280;29792;48.726;9.248;2023-03-19T04:22:54;96727.16;;;10.09;98.94
44131;BME280;29792;48.726;9.248;2023-03-19T04:25:19;96725.09;;;10.03;99.51
44131;BME280;29792;48.726;9.248;2023-03-19T04:27:45;96723.84;;;9.98;99.83
44131;BME280;29792;48.726;9.248;2023-03-19T04:30:11;96725.03;;;9.93;100.00
44131;BME280;29792;48.726;9.248;2023-03-19T04:32:37;96723.53;;;9.91;100.00
44131;BME280;29792;48.726;9.248;2023-03-19T04:35:02;96727.28;;;9.87;100.00
44131;BME280;29792;48.726;9.248;2023-03-19T04:37:28;96726.59;;;9.85;100.00
44131;BME280;29792;48.726;9.248;2023-03-19T04:39:53;96731.84;;;9.83;100.00
44131;BME280;29792;48.726;9.248;2023-03-19T04:42:19;96733.84;;;9.80;100.00
44131;BME280;29792;48.726;9.248;2023-03-19T04:44:44;96741.75;;;9.77;100.00
44131;BME280;29792;48.726;9.248;2023-03-19T04:47:10;96739.59;;;9.72;100.00
44131;BME280;29792;48.726;9.248;2023-03-19T04:49:35;96739.00;;;9.69;100.00
44131;BME280;29792;48.726;9.248;2023-03-19T04:52:01;96738.19;;;9.68;100.00
44131;BME280;29792;48.726;9.248;2023-03-19T04:54:26;96738.31;;;9.67;100.00
44131;BME280;29792;48.726;9.248;2023-03-19T04:56:52;96740.22;;;9.65;100.00
44131;BME280;29792;48.726;9.248;2023-03-19T04:59:17;96739.41;;;9.64;100.00
44131;BME280;29792;48.726;9.248;2023-03-19T05:01:43;96740.31;;;9.63;100.00
44131;BME280;29792;48.726;9.248;2023-03-19T05:04:08;96747.06;;;9.64;100.00
44131;BME280;29792;48.726;9.248;2023-03-19T05:06:34;96753.78;;;9.65;100.00
44131;BME280;29792;48.726;9.248;2023-03-19T05:09:00;96755.66;;;9.63;100.00
44131;BME280;29792;48.726;9.248;2023-03-19T05:11:26;96751.50;;;9.62;100.00
44131;BME280;29792;48.726;9.248;2023-03-19T05:13:51;96754.16;;;9.61;100.00
44131;BME280;29792;48.726;9.248;2023-03-19T05:16:16;96756.72;;;9.61;100.00
44131;BME280;29792;48.726;9.248;2023-03-19T05:18:42;96763.47;;;9.62;100.00
44131;BME280;29792;48.726;9.248;2023-03-19T05:21:10;96768.47;;;9.63;100.00
44131;BME280;29792;48.726;9.248;2023-03-19T05:23:36;96763.22;;;9.65;100.00
44131;BME280;29792;48.726;9.248;2023-03-19T05:26:01;96773.31;;;9.66;100.00
44131;BME280;29792;48.726;9.248;2023-03-19T05:28:26;96772.38;;;9.67;100.00
44131;BME280;29792;48.726;9.248;2023-03-19T05:30:52;96771.22;;;9.71;100.00
44131;BME280;29792;48.726;9.248;2023-03-19T05:33:17;96772.03;;;9.72;100.00
44131;BME280;29792;48.726;9.248;2023-03-19T05:35:42;96769.59;;;9.70;100.00
44131;BME280;29792;48.726;9.248;2023-03-19T05:38:07;96765.41;;;9.69;100.00
44131;BME280;29792;48.726;9.248;2023-03-19T05:40:35;96763.78;;;9.68;100.00
44131;BME280;29792;48.726;9.248;2023-03-19T05:43:00;96767.97;;;9.69;100.00
44131;BME280;29792;48.726;9.248;2023-03-19T05:45:26;96767.25;;;9.67;100.00
44131;BME280;29792;48.726;9.248;2023-03-19T05:47:51;96775.75;;;9.68;100.00
44131;BME280;29792;48.726;9.248;2023-03-19T05:50:17;96771.56;;;9.67;100.00
44131;BME280;29792;48.726;9.248;2023-03-19T05:52:43;96781.13;;;9.65;100.00
44131;BME280;29792;48.726;9.248;2023-03-19T05:55:08;96778.69;;;9.63;100.00
44131;BME280;29792;48.726;9.248;2023-03-19T05:57:33;96774.50;;;9.62;100.00
44131;BME280;29792;48.726;9.248;2023-03-19T05:59:59;96780.06;;;9.67;100.00
44131;BME280;29792;48.726;9.248;2023-03-19T06:02:24;96783.06;;;9.72;100.00
44131;BME280;29792;48.726;9.248;2023-03-19T06:04:49;96781.75;;;9.78;100.00
44131;BME280;29792;48.726;9.248;2023-03-19T06:07:15;96784.75;;;9.83;100.00
44131;BME280;29792;48.726;9.248;2023-03-19T06:09:40;96786.00;;;9.88;100.00
44131;BME280;29792;48.726;9.248;2023-03-19T06:12:06;96792.50;;;9.92;100.00
44131;BME280;29792;48.726;9.248;2023-03-19T06:14:32;96800.28;;;9.91;100.00
44131;BME280;29792;48.726;9.248;2023-03-19T06:16:57;96793.53;;;9.90;100.00
44131;BME280;29792;48.726;9.248;2023-03-19T06:19:22;96797.06;;;9.89;100.00
44131;BME280;29792;48.726;9.248;2023-03-19T06:21:47;96807.28;;;9.89;100.00
44131;BME280;29792;48.726;9.248;2023-03-19T06:24:13;96803.94;;;9.88;100.00
44131;BME280;29792;48.726;9.248;2023-03-19T06:26:38;96805.66;;;9.88;100.00
44131;BME280;29792;48.726;9.248;2023-03-19T06:29:03;96802.97;;;9.89;100.00
44131;BME280;29792;48.726;9.248;2023-03-19T06:31:29;96807.16;;;9.90;100.00
44131;BME280;29792;48.726;9.248;2023-03-19T06:33:54;96799.34;;;9.92;100.00
44131;BME280;29792;48.726;9.248;2023-03-19T06:36:20;96803.66;;;9.91;100.00
44131;BME280;29792;48.726;9.248;2023-03-19T06:38:45;96808.41;;;9.96;100.00
44131;BME280;29792;48.726;9.248;2023-03-19T06:41:11;96809.78;;;10.00;100.00
44131;BME280;29792;48.726;9.248;2023-03-19T06:43:36;96801.97;;;10.02;100.00
44131;BME280;29792;48.726;9.248;2023-03-19T06:46:04;96805.34;;;10.02;100.00
44131;BME280;29792;48.726;9.248;2023-03-19T06:48:31;96806.72;;;10.06;100.00
44131;BME280;29792;48.726;9.248;2023-03-19T06:50:56;96803.09;;;10.09;100.00
44131;BME280;29792;48.726;9.248;2023-03-19T06:53:22;96808.00;;;10.12;100.00
44131;BME280;29792;48.726;9.248;2023-03-19T06:55:47;96807.72;;;10.15;100.00
44131;BME280;29792;48.726;9.248;2023-03-19T06:58:12;96807.50;;;10.18;100.00
44131;BME280;29792;48.726;9.248;2023-03-19T07:00:37;96802.16;;;10.21;100.00
44131;BME280;29792;48.726;9.248;2023-03-19T07:03:03;96800.94;;;10.25;100.00
44131;BME280;29792;48.726;9.248;2023-03-19T07:05:28;96803.69;;;10.33;100.00
44131;BME280;29792;48.726;9.248;2023-03-19T07:07:53;96804.81;;;10.40;100.00
44131;BME280;29792;48.726;9.248;2023-03-19T07:10:19;96804.16;;;10.48;100.00
44131;BME280;29792;48.726;9.248;2023-03-19T07:12:45;96808.66;;;10.55;100.00
44131;BME280;29792;48.726;9.248;2023-03-19T07:15:11;96808.41;;;10.58;100.00
44131;BME280;29792;48.726;9.248;2023-03-19T07:17:36;96806.53;;;10.60;100.00
44131;BME280;29792;48.726;9.248;2023-03-19T07:20:02;96818.94;;;10.65;100.00
44131;BME280;29792;48.726;9.248;2023-03-19T07:22:27;96809.25;;;10.68;100.00
44131;BME280;29792;48.726;9.248;2023-03-19T07:24:52;96810.63;;;10.73;100.00
44131;BME280;29792;48.726;9.248;2023-03-19T07:27:18;96814.56;;;10.77;100.00
44131;BME280;29792;48.726;9.248;2023-03-19T07:29:43;96811.72;;;10.80;100.00
44131;BME280;29792;48.726;9.248;2023-03-19T07:32:09;96822.41;;;10.85;100.00
44131;BME280;29792;48.726;9.248;2023-03-19T07:34:34;96819.56;;;10.88;100.00
44131;BME280;29792;48.726;9.248;2023-03-19T07:37:00;96827.00;;;10.91;100.00
44131;BME280;29792;48.726;9.248;2023-03-19T07:39:25;96831.91;;;10.94;100.00
44131;BME280;29792;48.726;9.248;2023-03-19T07:41:50;96823.94;;;10.97;100.00
44131;BME280;29792;48.726;9.248;2023-03-19T07:44:16;96832.31;;;10.99;100.00
44131;BME280;29792;48.726;9.248;2023-03-19T07:46:41;96821.13;;;11.00;100.00
44131;BME280;29792;48.726;9.248;2023-03-19T07:49:07;96831.09;;;11.03;100.00
44131;BME280;29792;48.726;9.248;2023-03-19T07:51:33;96834.34;;;11.05;100.00
44131;BME280;29792;48.726;9.248;2023-03-19T07:53:58;96829.91;;;11.07;100.00
44131;BME280;29792;48.726;9.248;2023-03-19T07:56:23;96837.19;;;11.12;100.00
44131;BME280;29792;48.726;9.248;2023-03-19T07:58:48;96828.31;;;11.16;100.00
44131;BME280;29792;48.726;9.248;2023-03-19T08:01:14;96834.66;;;11.21;100.00
44131;BME280;29792;48.726;9.248;2023-03-19T08:03:39;96826.19;;;11.30;100.00
44131;BME280;29792;48.726;9.248;2023-03-19T08:06:05;96825.28;;;11.41;100.00
44131;BME280;29792;48.726;9.248;2023-03-19T08:08:30;96832.31;;;11.48;100.00
44131;BME280;29792;48.726;9.248;2023-03-19T08:10:55;96833.25;;;11.57;100.00
44131;BME280;29792;48.726;9.248;2023-03-19T08:13:21;96836.91;;;11.64;100.00
44131;BME280;29792;48.726;9.248;2023-03-19T08:15:48;96829.59;;;11.69;100.00
44131;BME280;29792;48.726;9.248;2023-03-19T08:18:15;96824.00;;;11.75;100.00
44131;BME280;29792;48.726;9.248;2023-03-19T08:20:40;96831.03;;;11.83;100.00
44131;BME280;29792;48.726;9.248;2023-03-19T08:23:06;96820.19;;;11.89;100.00
44131;BME280;29792;48.726;9.248;2023-03-19T08:25:31;96824.66;;;11.97;100.00
44131;BME280;29792;48.726;9.248;2023-03-19T08:27:58;96829.09;;;12.04;100.00
44131;BME280;29792;48.726;9.248;2023-03-19T08:30:23;96823.41;;;12.10;100.00
44131;BME280;29792;48.726;9.248;2023-03-19T08:32:49;96828.16;;;12.15;100.00
44131;BME280;29792;48.726;9.248;2023-03-19T08:35:15;96830.19;;;12.21;100.00
44131;BME280;29792;48.726;9.248;2023-03-19T08:37:40;96824.91;;;12.22;99.42
44131;BME280;29792;48.726;9.248;2023-03-19T08:40:06;96825.16;;;12.29;99.65
44131;BME280;29792;48.726;9.248;2023-03-19T08:42:32;96826.22;;;12.36;99.84
44131;BME280;29792;48.726;9.248;2023-03-19T08:44:58;96822.16;;;12.43;99.58
44131;BME280;29792;48.726;9.248;2023-03-19T08:47:23;96826.06;;;12.47;99.10
44131;BME280;29792;48.726;9.248;2023-03-19T08:49:52;96833.50;;;12.50;98.80
44131;BME280;29792;48.726;9.248;2023-03-19T08:52:18;96830.53;;;12.55;99.01
44131;BME280;29792;48.726;9.248;2023-03-19T08:54:44;96834.16;;;12.62;99.36
44131;BME280;29792;48.726;9.248;2023-03-19T08:57:09;96830.88;;;12.70;99.46
44131;BME280;29792;48.726;9.248;2023-03-19T08:59:35;96831.66;;;12.80;99.53
44131;BME280;29792;48.726;9.248;2023-03-19T09:02:00;96839.63;;;12.86;98.72
44131;BME280;29792;48.726;9.248;2023-03-19T09:04:26;96842.16;;;12.96;98.66
44131;BME280;29792;48.726;9.248;2023-03-19T09:06:51;96839.38;;;13.07;98.32
44131;BME280;29792;48.726;9.248;2023-03-19T09:09:18;96843.03;;;13.14;97.39
44131;BME280;29792;48.726;9.248;2023-03-19T09:11:44;96842.56;;;13.28;97.55
44131;BME280;29792;48.726;9.248;2023-03-19T09:14:10;96846.69;;;13.39;96.71
44131;BME280;29792;48.726;9.248;2023-03-19T09:16:36;96850.03;;;13.49;97.05
44131;BME280;29792;48.726;9.248;2023-03-19T09:19:01;96845.50;;;13.61;97.06
44131;BME280;29792;48.726;9.248;2023-03-19T09:21:27;96842.41;;;13.75;97.05
44131;BME280;29792;48.726;9.248;2023-03-19T09:23:52;96850.41;;;13.90;96.02
44131;BME280;29792;48.726;9.248;2023-03-19T09:26:18;96837.19;;;14.02;95.52
44131;BME280;29792;48.726;9.248;2023-03-19T09:28:43;96841.34;;;14.21;95.49
44131;BME280;29792;48.726;9.248;2023-03-19T09:31:09;96848.28;;;14.38;93.26
44131;BME280;29792;48.726;9.248;2023-03-19T09:33:35;96846.16;;;14.60;93.97
44131;BME280;29792;48.726;9.248;2023-03-19T09:36:00;96847.75;;;14.86;93.08
44131;BME280;29792;48.726;9.248;2023-03-19T09:38:26;96849.00;;;15.08;91.01
44131;BME280;29792;48.726;9.248;2023-03-19T09:41:06;96843.88;;;15.24;87.67
44131;BME280;29792;48.726;9.248;2023-03-19T09:43:55;96837.03;;;15.49;87.75
44131;BME280;29792;48.726;9.248;2023-03-19T09:46:49;96840.53;;;15.82;86.01
44131;BME280;29792;48.726;9.248;2023-03-19T09:49:21;96836.03;;;16.09;86.41
44131;BME280;29792;48.726;9.248;2023-03-19T09:51:52;96829.09;;;16.25;84.51
44131;BME280;29792;48.726;9.248;2023-03-19T09:54:36;96831.34;;;16.45;82.75
44131;BME280;29792;48.726;9.248;2023-03-19T09:57:07;96831.16;;;16.62;82.75
44131;BME280;29792;48.726;9.248;2023-03-19T09:59:33;96825.63;;;16.82;79.59
44131;BME280;29792;48.726;9.248;2023-03-19T10:04:41;96827.47;;;17.04;75.08
44131;BME280;29792;48.726;9.248;2023-03-19T10:09:50;96826.09;;;17.32;72.97
44131;BME280;29792;48.726;9.248;2023-03-19T10:13:22;96826.38;;;17.68;72.48
44131;BME280;29792;48.726;9.248;2023-03-19T10:15:41;96814.53;;;17.97;68.58
44131;BME280;29792;48.726;9.248;2023-03-19T10:18:20;96812.63;;;18.13;65.79
44131;BME280;29792;48.726;9.248;2023-03-19T10:20:59;96811.19;;;18.48;66.44
44131;BME280;29792;48.726;9.248;2023-03-19T10:25:57;96808.34;;;19.17;62.32
44131;BME280;29792;48.726;9.248;2023-03-19T10:28:26;96810.72;;;19.48;58.88
44131;BME280;29792;48.726;9.248;2023-03-19T10:31:24;96807.25;;;19.76;57.42
44131;BME280;29792;48.726;9.248;2023-03-19T10:36:26;96811.00;;;20.66;55.00
44131;BME280;29792;48.726;9.248;2023-03-19T10:38:51;96797.78;;;21.08;51.56
44131;BME280;29792;48.726;9.248;2023-03-19T10:41:37;96802.75;;;21.38;49.58
44131;BME280;29792;48.726;9.248;2023-03-19T10:44:11;96793.91;;;22.19;48.04
44131;BME280;29792;48.726;9.248;2023-03-19T10:46:40;96795.78;;;23.03;47.20
44131;BME280;29792;48.726;9.248;2023-03-19T10:49:13;96799.63;;;23.51;43.94
44131;BME280;29792;48.726;9.248;2023-03-19T10:51:39;96799.44;;;23.46;40.91
44131;BME280;29792;48.726;9.248;2023-03-19T10:54:36;96803.59;;;23.16;42.75
44131;BME280;29792;48.726;9.248;2023-03-19T10:57:04;96790.22;;;22.93;42.40
44131;BME280;29792;48.726;9.248;2023-03-19T11:02:01;96787.44;;;22.48;40.58
44131;BME280;29792;48.726;9.248;2023-03-19T11:04:27;96782.63;;;22.05;40.97
44131;BME280;29792;48.726;9.248;2023-03-19T11:07:09;96783.97;;;21.68;41.84
44131;BME280;29792;48.726;9.248;2023-03-19T11:09:38;96788.66;;;21.99;43.20
44131;BME280;29792;48.726;9.248;2023-03-19T11:12:32;96791.28;;;22.52;42.31
44131;BME280;29792;48.726;9.248;2023-03-19T11:15:02;96783.19;;;22.73;41.78
44131;BME280;29792;48.726;9.248;2023-03-19T11:17:46;96784.16;;;23.43;42.12
44131;BME280;29792;48.726;9.248;2023-03-19T11:22:40;96797.00;;;23.58;37.61
44131;BME280;29792;48.726;9.248;2023-03-19T11:25:27;96787.50;;;23.64;40.30
44131;BME280;29792;48.726;9.248;2023-03-19T11:28:14;96773.06;;;24.11;40.49
44131;BME280;29792;48.726;9.248;2023-03-19T11:30:55;96778.03;;;23.94;37.40
44131;BME280;29792;48.726;9.248;2023-03-19T11:34:06;96779.59;;;23.32;37.39
44131;BME280;29792;48.726;9.248;2023-03-19T11:36:46;96781.94;;;23.02;36.88
44131;BME280;29792;48.726;9.248;2023-03-19T11:50:25;96763.22;;;24.38;37.90
44131;BME280;29792;48.726;9.248;2023-03-19T11:55:33;96763.13;;;24.19;34.62
44131;BME280;29792;48.726;9.248;2023-03-19T11:58:25;96765.34;;;23.21;36.02
44131;BME280;29792;48.726;9.248;2023-03-19T12:01:02;96764.56;;;22.43;36.31
44131;BME280;29792;48.726;9.248;2023-03-19T12:03:40;96763.94;;;21.82;40.01
44131;BME280;29792;48.726;9.248;2023-03-19T12:06:35;96751.69;;;21.83;39.97
44131;BME280;29792;48.726;9.248;2023-03-19T12:09:08;96742.50;;;22.20;39.23
44131;BME280;29792;48.726;9.248;2023-03-19T12:14:44;96752.53;;;22.23;39.26
44131;BME280;29792;48.726;9.248;2023-03-19T12:17:32;96746.69;;;21.88;40.21
44131;BME280;29792;48.726;9.248;2023-03-19T12:28:23;96737.13;;;20.39;41.88
44131;BME280;29792;48.726;9.248;2023-03-19T12:31:02;96736.97;;;20.19;42.93
44131;BME280;29792;48.726;9.248;2023-03-19T12:33:48;96739.72;;;20.11;43.35
44131;BME280;29792;48.726;9.248;2023-03-19T12:36:22;96739.38;;;19.93;43.24
44131;BME280;29792;48.726;9.248;2023-03-19T12:38:58;96740.47;;;19.77;42.82
44131;BME280;29792;48.726;9.248;2023-03-19T12:41:27;96741.31;;;19.63;43.33
44131;BME280;29792;48.726;9.248;2023-03-19T12:44:04;96735.69;;;19.59;43.76
44131;BME280;29792;48.726;9.248;2023-03-19T12:46:50;96731.84;;;19.76;44.64
44131;BME280;29792;48.726;9.248;2023-03-19T12:51:50;96732.16;;;20.16;44.49
44131;BME280;29792;48.726;9.248;2023-03-19T12:54:23;96737.38;;;20.16;44.15
44131;BME280;29792;48.726;9.248;2023-03-19T12:56:57;96736.06;;;20.05;43.64
44131;BME280;29792;48.726;9.248;2023-03-19T12:59:35;96735.59;;;19.95;43.51
44131;BME280;29792;48.726;9.248;2023-03-19T13:02:20;96735.31;;;19.62;43.33
44131;BME280;29792;48.726;9.248;2023-03-19T13:04:55;96737.38;;;19.31;44.16
44131;BME280;29792;48.726;9.248;2023-03-19T13:07:29;96742.53;;;19.10;44.57
44131;BME280;29792;48.726;9.248;2023-03-19T13:10:03;96739.69;;;18.90;45.37
44131;BME280;29792;48.726;9.248;2023-03-19T13:12:32;96731.31;;;18.88;45.84
44131;BME280;29792;48.726;9.248;2023-03-19T13:15:11;96733.59;;;19.12;45.93
44131;BME280;29792;48.726;9.248;2023-03-19T13:18:28;96731.78;;;19.49;46.50
44131;BME280;29792;48.726;9.248;2023-03-19T13:21:13;96728.72;;;19.60;45.30
44131;BME280;29792;48.726;9.248;2023-03-19T13:23:44;96728.25;;;19.56;44.29
44131;BME280;29792;48.726;9.248;2023-03-19T13:26:11;96732.78;;;19.69;44.49
44131;BME280;29792;48.726;9.248;2023-03-19T13:28:53;96735.03;;;19.78;45.02
44131;BME280;29792;48.726;9.248;2023-03-19T13:31:20;96732.84;;;19.75;46.14
44131;BME280;29792;48.726;9.248;2023-03-19T13:33:59;96730.22;;;19.54;46.46
44131;BME280;29792;48.726;9.248;2023-03-19T13:36:29;96733.28;;;19.22;46.75
44131;BME280;29792;48.726;9.248;2023-03-19T13:38:56;96725.31;;;18.87;47.36
44131;BME280;29792;48.726;9.248;2023-03-19T13:46:46;96723.59;;;18.21;49.61
44131;BME280;29792;48.726;9.248;2023-03-19T13:51:43;96725.78;;;17.95;49.58
44131;BME280;29792;48.726;9.248;2023-03-19T13:59:32;96729.72;;;17.90;50.90
44131;BME280;29792;48.726;9.248;2023-03-19T14:01:59;96730.25;;;18.01;50.86
44131;BME280;29792;48.726;9.248;2023-03-19T14:04:27;96735.97;;;17.96;50.12
44131;BME280;29792;48.726;9.248;2023-03-19T14:14:54;96729.66;;;17.76;49.99